Vernon, Oklahoma
Current Conditions -  °F | °C
As of 1:53 PM on Thursday 23 Oct 2014 (Local Time) from KMLC Reporting Station
Overcast Overcast  
Wind Chill: 62°   Ceiling: 4900
Heat Index: 62°   Visibility: 10mi
Dew Point: 57°   Wind: 0mph
Humidity: 84%   Direction: NA
Pressure: 30.15"   Gusts: NA
Location:  35.2158°N, 95.8817°W
Report Text: KMLC 231853Z AUTO 00000KT 10SM OVC049 17/14 A3015 RMK AO2 RAE26 SLP204 P0000 T01670139
Loading
Personal Weather Stations






























Interactive Weather Map
Tropical Storm Tracking
New forecast layout! Learn more

10-Day Weather Forecast

Advertisements
Track Severe Weather on mobile